Time;durP1;ratioP1;P1;durP2;ratioP2;P2;SDS_P1;SDS_P2;PMS_P1;PMS_P2;Temp;Humidity;BMP_temperature;BMP_pressure;BME280_temperature;BME280_humidity;BME280_pressure;Samples;Min_cycle;Max_cycle;Signal;HPM_P1;HPM_P2
2022/11/23 00:01:32;;;;;;;18.42;8.77;;;3.50;96.40;;;;;;5004467;28;20031;-74
2022/11/23 00:04:00;;;;;;;18.38;8.25;;;3.50;96.50;;;;;;5006434;28;20457;-74
2022/11/23 00:06:26;;;;;;;14.38;8.35;;;3.60;96.50;;;;;;5003819;28;20052;-74
2022/11/23 00:08:52;;;;;;;14.52;7.60;;;3.60;96.50;;;;;;4987635;28;20433;-74
2022/11/23 00:11:20;;;;;;;13.85;8.38;;;3.70;96.40;;;;;;5000813;28;20138;-74
2022/11/23 00:13:46;;;;;;;12.70;7.60;;;3.60;96.40;;;;;;5001615;28;20411;-74
2022/11/23 00:16:16;;;;;;;15.80;8.35;;;3.70;96.40;;;;;;5000105;28;20459;-74
2022/11/23 00:18:42;;;;;;;15.10;7.80;;;3.70;96.40;;;;;;5009185;28;20021;-74
2022/11/23 00:21:09;;;;;;;18.52;7.22;;;3.70;96.40;;;;;;5001146;28;20025;-74
2022/11/23 00:23:35;;;;;;;12.63;7.35;;;3.70;96.50;;;;;;5007172;28;20052;-74
2022/11/23 00:26:01;;;;;;;11.25;6.40;;;3.80;96.40;;;;;;5006681;28;20017;-74
2022/11/23 00:28:27;;;;;;;13.07;6.88;;;3.80;96.30;;;;;;4997074;28;20084;-74
2022/11/23 00:30:52;;;;;;;13.80;7.00;;;3.70;96.40;;;;;;5004650;28;20155;-74
2022/11/23 00:33:18;;;;;;;14.77;7.97;;;3.80;96.40;;;;;;5008139;28;20378;-74
2022/11/23 00:35:43;;;;;;;15.30;7.95;;;3.80;96.40;;;;;;5008526;28;20532;-73
2022/11/23 00:38:09;;;;;;;14.63;7.53;;;3.80;96.40;;;;;;5007505;28;20113;-74
2022/11/23 00:40:34;;;;;;;14.15;7.20;;;3.80;96.40;;;;;;5007271;28;20106;-74
2022/11/23 00:43:00;;;;;;;14.23;7.45;;;3.80;96.40;;;;;;5005826;28;20053;-74
2022/11/23 00:45:25;;;;;;;16.92;7.65;;;3.80;96.50;;;;;;5003095;28;20140;-74
2022/11/23 00:47:50;;;;;;;14.30;7.43;;;3.80;96.40;;;;;;4989014;28;21564;-74
2022/11/23 00:50:16;;;;;;;13.65;7.13;;;3.80;96.40;;;;;;5005773;28;20036;-74
2022/11/23 00:52:41;;;;;;;16.92;8.18;;;3.90;96.40;;;;;;5005252;28;20413;-74
2022/11/23 00:55:07;;;;;;;13.75;7.03;;;3.90;96.40;;;;;;5003775;28;20167;-74
2022/11/23 00:57:33;;;;;;;14.02;6.93;;;3.90;96.40;;;;;;5007929;28;20453;-74
2022/11/23 00:59:59;;;;;;;12.90;6.95;;;3.90;96.30;;;;;;5006900;28;20033;-74
2022/11/23 01:02:24;;;;;;;17.55;7.28;;;3.90;96.30;;;;;;5007933;28;20022;-74
2022/11/23 01:04:50;;;;;;;14.80;7.40;;;3.90;96.30;;;;;;5008798;28;20093;-74
2022/11/23 01:07:15;;;;;;;13.60;7.28;;;3.90;96.40;;;;;;5008262;28;20109;-73
2022/11/23 01:09:40;;;;;;;17.75;8.15;;;3.90;96.40;;;;;;5008629;28;20048;-74
2022/11/23 01:12:06;;;;;;;14.75;7.75;;;3.90;96.40;;;;;;4989701;28;20017;-74
2022/11/23 01:14:32;;;;;;;16.85;7.10;;;4.00;96.40;;;;;;4980490;28;20037;-74
2022/11/23 01:16:57;;;;;;;13.15;6.82;;;4.00;96.50;;;;;;5001261;28;20430;-74
2022/11/23 01:19:24;;;;;;;19.23;7.20;;;3.90;96.60;;;;;;5008437;28;20117;-74
2022/11/23 01:21:50;;;;;;;15.73;7.30;;;3.90;97.00;;;;;;5000679;28;20049;-74
2022/11/23 01:24:19;;;;;;;13.90;7.13;;;3.90;97.20;;;;;;5005531;28;20074;-74
2022/11/23 01:26:45;;;;;;;13.15;7.47;;;3.90;97.30;;;;;;5007185;28;20040;-74
2022/11/23 01:29:11;;;;;;;14.02;7.78;;;3.90;97.40;;;;;;5007489;28;20431;-74
2022/11/23 01:31:37;;;;;;;17.00;6.90;;;3.90;97.60;;;;;;5008760;28;20041;-74
2022/11/23 01:34:03;;;;;;;14.98;7.75;;;3.80;97.80;;;;;;5007031;28;20030;-74
2022/11/23 01:36:31;;;;;;;17.58;8.15;;;3.80;97.80;;;;;;4997688;28;20072;-74
2022/11/23 01:38:59;;;;;;;17.88;7.90;;;3.80;97.80;;;;;;4988347;28;20038;-74
2022/11/23 01:41:36;;;;;;;16.30;7.95;;;3.80;97.90;;;;;;5006169;28;20022;-74
2022/11/23 01:44:28;;;;;;;13.25;7.65;;;3.80;97.90;;;;;;5006351;28;20141;-74
2022/11/23 01:46:56;;;;;;;11.82;7.65;;;3.80;98.00;;;;;;5008260;28;20456;-74
2022/11/23 01:49:23;;;;;;;13.80;7.43;;;3.80;98.10;;;;;;5008790;28;20030;-74
2022/11/23 01:51:51;;;;;;;16.35;8.07;;;3.80;98.10;;;;;;5007504;28;20101;-74
2022/11/23 01:54:43;;;;;;;15.85;7.63;;;3.80;98.10;;;;;;5005030;28;20088;-74
2022/11/23 01:57:15;;;;;;;13.90;7.78;;;3.80;98.20;;;;;;5000993;28;20365;-74
2022/11/23 01:59:40;;;;;;;18.13;7.53;;;3.80;98.20;;;;;;5009531;28;20054;-74
2022/11/23 02:02:06;;;;;;;16.70;7.50;;;3.80;98.30;;;;;;5003792;28;20503;-74
2022/11/23 02:04:36;;;;;;;16.75;7.75;;;3.80;98.30;;;;;;5005719;28;20056;-74
2022/11/23 02:07:02;;;;;;;18.92;8.00;;;3.80;98.30;;;;;;5008677;28;20018;-74
2022/11/23 02:09:32;;;;;;;13.80;7.90;;;3.80;98.30;;;;;;5016102;28;20072;-74
2022/11/23 02:11:58;;;;;;;14.82;8.30;;;3.80;98.30;;;;;;5012427;28;20436;-74
2022/11/23 02:14:24;;;;;;;16.70;7.38;;;3.80;98.30;;;;;;5007273;28;20062;-74
2022/11/23 02:16:50;;;;;;;14.88;7.60;;;3.80;98.30;;;;;;5009492;28;20069;-74
2022/11/23 02:19:31;;;;;;;14.98;7.95;;;3.80;98.40;;;;;;5010032;28;20119;-74
2022/11/23 02:21:56;;;;;;;15.05;7.07;;;3.70;98.40;;;;;;5003731;28;20457;-74
2022/11/23 02:24:32;;;;;;;12.45;7.18;;;3.80;98.50;;;;;;5003741;28;20030;-74
2022/11/23 02:26:58;;;;;;;15.10;7.13;;;3.80;98.50;;;;;;5008453;28;20045;-74
2022/11/23 02:29:25;;;;;;;16.33;7.57;;;3.80;98.50;;;;;;5009770;28;20338;-74
2022/11/23 02:31:51;;;;;;;13.68;7.88;;;3.80;98.50;;;;;;5010679;28;20084;-74
2022/11/23 02:34:18;;;;;;;16.42;7.20;;;3.80;98.60;;;;;;5009798;28;20099;-75
2022/11/23 02:36:48;;;;;;;16.20;7.30;;;3.80;98.60;;;;;;5009205;28;20359;-74
2022/11/23 02:39:28;;;;;;;18.95;7.75;;;3.80;98.50;;;;;;5007332;28;20061;-74
2022/11/23 02:41:54;;;;;;;16.88;7.40;;;3.80;98.50;;;;;;5008279;28;20030;-74
2022/11/23 02:44:45;;;;;;;14.60;7.75;;;3.80;98.60;;;;;;5007826;28;20029;-74
2022/11/23 02:47:10;;;;;;;18.75;7.32;;;3.90;98.60;;;;;;5005027;28;20133;-74
2022/11/23 02:49:36;;;;;;;14.23;8.07;;;3.80;98.50;;;;;;5009400;28;20481;-74
2022/11/23 02:52:03;;;;;;;17.48;7.35;;;3.80;98.50;;;;;;5009726;28;20512;-74
2022/11/23 02:54:28;;;;;;;20.67;7.78;;;3.80;98.50;;;;;;5007086;28;20052;-74
2022/11/23 02:56:54;;;;;;;15.45;7.57;;;3.80;98.50;;;;;;5005796;28;20025;-75
2022/11/23 02:59:19;;;;;;;15.57;7.70;;;3.80;98.60;;;;;;5001879;28;20025;-74
2022/11/23 03:01:46;;;;;;;15.40;7.20;;;3.80;98.60;;;;;;5007341;28;20030;-74
2022/11/23 03:04:11;;;;;;;15.35;7.15;;;3.80;98.70;;;;;;5008628;28;20093;-74
2022/11/23 03:06:37;;;;;;;14.88;7.03;;;3.80;98.60;;;;;;5015745;28;20160;-74
2022/11/23 03:09:02;;;;;;;14.68;6.68;;;3.90;98.60;;;;;;5012446;28;20091;-75
2022/11/23 03:11:28;;;;;;;13.32;7.15;;;3.90;98.60;;;;;;5005395;28;20033;-75
2022/11/23 03:13:54;;;;;;;14.95;7.40;;;3.90;98.60;;;;;;5006311;28;20029;-75
2022/11/23 03:16:19;;;;;;;16.27;6.68;;;3.90;98.50;;;;;;5006018;28;20118;-74
2022/11/23 03:18:45;;;;;;;13.40;6.88;;;3.90;98.60;;;;;;5009213;28;20089;-75
2022/11/23 03:23:52;;;;;;;11.43;6.43;;;3.90;98.50;;;;;;5056363;28;20564;-72
2022/11/23 03:26:17;;;;;;;11.10;6.38;;;3.90;98.50;;;;;;5070162;28;20051;-73
2022/11/23 03:28:43;;;;;;;13.00;5.90;;;3.90;98.60;;;;;;5071105;28;20081;-72
2022/11/23 03:31:08;;;;;;;12.77;6.07;;;3.90;98.50;;;;;;5058982;28;20024;-73
2022/11/23 03:33:34;;;;;;;17.48;6.55;;;3.90;98.50;;;;;;5062593;28;20052;-73
2022/11/23 03:36:00;;;;;;;15.52;6.57;;;3.90;98.50;;;;;;5066693;28;20032;-73
2022/11/23 03:38:26;;;;;;;9.90;5.47;;;3.90;98.60;;;;;;5061128;28;20389;-73
2022/11/23 03:40:51;;;;;;;18.48;6.18;;;4.00;98.70;;;;;;5062519;28;20107;-73
2022/11/23 03:43:18;;;;;;;13.63;5.88;;;4.00;98.60;;;;;;5045419;28;20053;-73
2022/11/23 03:45:44;;;;;;;11.07;5.68;;;4.10;98.60;;;;;;5069750;28;20033;-73
2022/11/23 03:48:09;;;;;;;10.70;5.85;;;4.10;98.50;;;;;;5068372;28;20039;-74
2022/11/23 03:50:35;;;;;;;10.23;4.93;;;4.10;98.50;;;;;;5048842;28;20376;-73
2022/11/23 03:53:01;;;;;;;15.25;5.40;;;4.20;98.50;;;;;;5044933;28;20368;-73
2022/11/23 03:55:26;;;;;;;10.38;5.07;;;4.20;98.50;;;;;;5071797;28;20028;-72
2022/11/23 03:57:58;;;;;;;9.65;5.15;;;4.30;98.50;;;;;;5053827;28;20052;-74
2022/11/23 04:00:24;;;;;;;12.32;5.20;;;4.30;98.50;;;;;;5051581;28;20441;-73
2022/11/23 04:02:50;;;;;;;10.68;5.28;;;4.30;98.50;;;;;;5051892;28;20479;-73
2022/11/23 04:05:16;;;;;;;11.60;5.32;;;4.30;98.50;;;;;;5063236;28;20036;-73
2022/11/23 04:07:41;;;;;;;12.40;5.68;;;4.30;98.80;;;;;;5048428;28;20112;-73
2022/11/23 04:10:07;;;;;;;12.27;5.35;;;4.30;98.80;;;;;;5067671;28;20033;-73
2022/11/23 04:12:32;;;;;;;15.98;6.25;;;4.30;98.80;;;;;;5054704;28;20170;-73
2022/11/23 04:14:58;;;;;;;14.18;5.22;;;4.30;98.90;;;;;;5062604;28;20380;-73
2022/11/23 04:17:23;;;;;;;10.30;5.57;;;4.30;98.90;;;;;;5053030;28;20032;-73
2022/11/23 04:19:49;;;;;;;14.23;5.30;;;4.30;99.00;;;;;;5067738;28;20032;-72
2022/11/23 04:22:14;;;;;;;11.38;4.97;;;4.30;98.90;;;;;;5052640;28;20061;-72
2022/11/23 04:24:40;;;;;;;12.23;5.88;;;4.40;99.00;;;;;;5046552;28;20104;-74
2022/11/23 04:27:05;;;;;;;13.75;5.57;;;4.40;99.00;;;;;;5032332;28;20358;-73
2022/11/23 04:29:30;;;;;;;15.55;5.85;;;4.40;99.10;;;;;;5037995;28;20032;-72
2022/11/23 04:31:56;;;;;;;14.35;5.03;;;4.40;99.10;;;;;;5044475;28;20111;-72
2022/11/23 04:34:21;;;;;;;10.65;5.15;;;4.40;99.10;;;;;;5030845;28;20049;-73
2022/11/23 04:36:47;;;;;;;16.67;5.47;;;4.40;99.10;;;;;;5026770;28;20128;-73
2022/11/23 04:39:12;;;;;;;11.75;5.90;;;4.40;99.20;;;;;;5014006;28;20041;-73
2022/11/23 04:41:38;;;;;;;13.18;6.03;;;4.40;99.20;;;;;;5024507;28;20064;-73
2022/11/23 04:44:05;;;;;;;10.90;5.20;;;4.40;99.20;;;;;;5022592;28;20425;-73
2022/11/23 04:46:30;;;;;;;15.63;5.90;;;4.40;99.20;;;;;;5014028;28;20402;-74
2022/11/23 04:48:56;;;;;;;12.20;5.78;;;4.50;99.30;;;;;;5027441;28;20017;-75
2022/11/23 04:51:21;;;;;;;9.85;4.93;;;4.50;99.30;;;;;;5031257;28;20029;-74
2022/11/23 04:53:47;;;;;;;14.65;4.95;;;4.60;99.30;;;;;;5017455;28;20053;-74
2022/11/23 04:56:13;;;;;;;13.02;5.25;;;4.50;99.30;;;;;;5025998;28;20124;-74
2022/11/23 04:58:39;;;;;;;12.13;5.35;;;4.50;99.30;;;;;;5017455;28;20308;-74
2022/11/23 05:01:05;;;;;;;11.23;5.20;;;4.50;99.30;;;;;;5017367;28;20034;-74
2022/11/23 05:03:33;;;;;;;11.52;5.43;;;4.60;99.40;;;;;;5020888;28;20460;-74
2022/11/23 05:05:59;;;;;;;11.52;5.43;;;4.60;99.50;;;;;;5031038;28;20380;-74
2022/11/23 05:08:25;;;;;;;13.68;5.40;;;4.60;99.40;;;;;;5028584;28;20024;-74
2022/11/23 05:10:50;;;;;;;14.95;5.43;;;4.60;99.40;;;;;;5031861;28;20120;-74
2022/11/23 05:13:16;;;;;;;13.13;5.60;;;4.60;99.40;;;;;;5029581;28;20033;-74
2022/11/23 05:15:41;;;;;;;14.45;4.85;;;4.60;99.40;;;;;;5030582;28;20029;-74
2022/11/23 05:18:07;;;;;;;7.45;4.25;;;4.60;99.40;;;;;;5029892;28;20048;-74
2022/11/23 05:20:33;;;;;;;13.57;5.20;;;4.60;99.40;;;;;;5023694;28;20109;-74
2022/11/23 05:22:59;;;;;;;7.90;4.32;;;4.70;99.40;;;;;;5020597;28;20053;-74
2022/11/23 05:25:26;;;;;;;11.10;4.70;;;4.70;99.40;;;;;;5034580;28;22306;-74
2022/11/23 05:27:51;;;;;;;10.75;4.63;;;4.70;99.40;;;;;;5040041;28;20026;-74
2022/11/23 05:30:18;;;;;;;11.63;4.88;;;4.70;99.40;;;;;;5025031;28;20484;-80
2022/11/23 05:32:44;;;;;;;13.07;5.25;;;4.80;99.30;;;;;;5025080;28;20045;-75
2022/11/23 05:35:09;;;;;;;11.18;4.88;;;4.80;99.30;;;;;;5029808;28;20033;-76
2022/11/23 05:37:35;;;;;;;11.88;4.35;;;4.80;99.30;;;;;;5030042;28;20025;-76
2022/11/23 05:40:00;;;;;;;15.07;4.85;;;4.80;99.30;;;;;;5022068;28;20045;-76
2022/11/23 05:42:26;;;;;;;10.68;5.15;;;4.80;99.30;;;;;;5011199;28;20030;-75
2022/11/23 05:44:52;;;;;;;14.52;4.88;;;4.90;99.30;;;;;;5016862;28;20081;-75
2022/11/23 05:47:17;;;;;;;10.75;4.38;;;4.90;99.30;;;;;;5022316;28;20029;-76
2022/11/23 05:49:43;;;;;;;9.00;4.47;;;4.90;99.40;;;;;;5017268;28;20434;-76
2022/11/23 05:52:08;;;;;;;12.02;5.05;;;4.90;99.30;;;;;;5020871;28;20061;-76
2022/11/23 05:54:34;;;;;;;14.40;4.88;;;4.90;99.30;;;;;;5019429;28;20043;-76
2022/11/23 05:56:59;;;;;;;10.45;4.45;;;4.90;99.30;;;;;;5027394;28;20136;-77
2022/11/23 05:59:24;;;;;;;10.30;4.88;;;5.00;99.40;;;;;;5023180;28;20518;-76
2022/11/23 06:01:51;;;;;;;14.38;4.82;;;5.00;99.30;;;;;;5034136;28;20086;-76
2022/11/23 06:04:16;;;;;;;9.00;5.07;;;5.00;99.40;;;;;;5024963;28;20026;-75
2022/11/23 06:06:42;;;;;;;10.65;4.60;;;5.00;99.40;;;;;;5021174;28;20327;-76
2022/11/23 06:09:07;;;;;;;13.90;4.80;;;5.00;99.40;;;;;;5029155;28;20036;-76
2022/11/23 06:11:34;;;;;;;10.93;4.63;;;5.00;99.40;;;;;;5029069;28;20037;-76
2022/11/23 06:13:59;;;;;;;13.55;4.18;;;5.00;99.40;;;;;;5020172;28;20108;-76
2022/11/23 06:16:25;;;;;;;12.07;4.82;;;5.00;99.40;;;;;;5026685;28;20108;-77
2022/11/23 06:18:50;;;;;;;12.25;4.47;;;5.00;99.40;;;;;;5020367;28;20038;-72
2022/11/23 06:21:16;;;;;;;8.07;4.22;;;5.00;99.40;;;;;;5028079;28;20057;-76
2022/11/23 06:23:42;;;;;;;12.32;4.47;;;5.00;99.40;;;;;;5023083;28;20061;-78
2022/11/23 06:26:07;;;;;;;10.18;4.18;;;5.00;99.40;;;;;;5023207;28;20135;-76
2022/11/23 06:28:35;;;;;;;12.10;4.00;;;5.10;99.30;;;;;;5025668;28;20440;-76
2022/11/23 06:31:02;;;;;;;12.32;4.22;;;5.10;99.30;;;;;;5026521;28;20037;-77
2022/11/23 06:33:28;;;;;;;7.80;4.05;;;5.20;99.20;;;;;;5018782;28;20020;-76
2022/11/23 06:35:54;;;;;;;15.10;4.75;;;5.20;99.10;;;;;;5028353;28;20044;-75
2022/11/23 06:38:20;;;;;;;9.93;4.22;;;5.10;99.00;;;;;;5019174;28;20030;-75
2022/11/23 06:40:45;;;;;;;11.65;4.25;;;5.10;99.00;;;;;;5015785;28;20339;-76
2022/11/23 06:43:11;;;;;;;9.55;4.38;;;5.10;99.00;;;;;;5027893;28;20123;-76
2022/11/23 06:45:36;;;;;;;7.40;3.40;;;5.10;99.00;;;;;;5029749;28;20034;-76
2022/11/23 06:48:02;;;;;;;10.77;4.28;;;5.10;98.90;;;;;;5025128;28;20088;-76
2022/11/23 06:50:27;;;;;;;10.95;4.38;;;5.20;98.90;;;;;;5022948;28;20738;-76
2022/11/23 06:52:55;;;;;;;8.77;3.97;;;5.20;98.80;;;;;;5021234;28;20045;-76
2022/11/23 06:55:20;;;;;;;11.32;4.22;;;5.20;98.70;;;;;;5025893;28;20083;-76
2022/11/23 06:57:46;;;;;;;11.73;3.88;;;5.10;98.50;;;;;;5021136;28;20627;-75
2022/11/23 07:00:12;;;;;;;9.10;3.72;;;5.10;98.60;;;;;;5030174;28;20056;-76
2022/11/23 07:02:37;;;;;;;8.82;3.70;;;5.10;98.70;;;;;;5032858;28;20048;-76
2022/11/23 07:05:03;;;;;;;12.77;4.40;;;5.10;98.70;;;;;;5034425;28;20089;-75
2022/11/23 07:07:28;;;;;;;10.95;4.32;;;5.10;98.60;;;;;;5028852;28;20407;-76
2022/11/23 07:09:54;;;;;;;11.45;4.20;;;5.10;98.70;;;;;;5028477;28;20132;-76
2022/11/23 07:12:19;;;;;;;8.70;4.00;;;5.10;98.60;;;;;;5015807;28;20052;-76
2022/11/23 07:14:45;;;;;;;12.05;4.43;;;5.10;98.60;;;;;;5025742;28;20228;-75
2022/11/23 07:17:10;;;;;;;7.78;3.45;;;5.10;98.60;;;;;;5028397;28;20033;-76
2022/11/23 07:19:36;;;;;;;10.73;4.10;;;5.10;98.60;;;;;;5026749;28;20060;-76
2022/11/23 07:22:01;;;;;;;9.90;3.80;;;5.10;98.60;;;;;;5026564;28;20511;-76
2022/11/23 07:24:27;;;;;;;10.35;3.92;;;5.10;98.70;;;;;;5022988;28;20075;-75
2022/11/23 07:26:52;;;;;;;9.70;4.20;;;5.10;98.70;;;;;;5028350;28;20034;-77
2022/11/23 07:29:18;;;;;;;13.02;3.78;;;5.10;98.60;;;;;;5032819;28;20108;-76
2022/11/23 07:31:43;;;;;;;8.88;3.75;;;5.20;98.60;;;;;;5023868;28;20139;-77
2022/11/23 07:34:09;;;;;;;8.55;3.42;;;5.10;98.60;;;;;;5028550;28;20341;-77
2022/11/23 07:36:35;;;;;;;12.02;4.50;;;5.20;98.60;;;;;;5025961;28;20102;-77
2022/11/23 07:39:01;;;;;;;8.30;3.63;;;5.20;98.60;;;;;;5022886;28;20159;-77
2022/11/23 07:41:26;;;;;;;8.35;3.88;;;5.20;98.60;;;;;;5026993;28;20208;-75
2022/11/23 07:43:52;;;;;;;13.63;4.32;;;5.20;98.60;;;;;;5026706;28;20112;-78
2022/11/23 07:46:17;;;;;;;11.25;4.63;;;5.30;98.50;;;;;;5028644;28;20026;-78
2022/11/23 07:48:43;;;;;;;10.25;3.88;;;5.30;98.50;;;;;;5030145;28;20350;-76
2022/11/23 07:51:08;;;;;;;10.02;4.13;;;5.30;98.50;;;;;;5025966;28;20051;-78
2022/11/23 07:53:35;;;;;;;9.93;3.70;;;5.30;98.40;;;;;;5030773;28;20055;-76
2022/11/23 07:56:00;;;;;;;8.40;3.60;;;5.30;98.30;;;;;;5027212;28;20025;-75
2022/11/23 07:58:26;;;;;;;10.57;4.20;;;5.30;98.30;;;;;;5015225;28;20052;-76
2022/11/23 08:00:52;;;;;;;9.45;3.85;;;5.30;98.30;;;;;;5028519;28;20156;-75
2022/11/23 08:03:18;;;;;;;8.60;3.55;;;5.40;98.20;;;;;;5030191;28;20033;-77
2022/11/23 08:05:43;;;;;;;9.00;3.45;;;5.40;98.20;;;;;;5036488;28;20136;-77
2022/11/23 08:08:09;;;;;;;9.80;3.47;;;5.40;98.00;;;;;;5032132;28;20468;-77
2022/11/23 08:10:34;;;;;;;11.45;3.67;;;5.50;97.90;;;;;;5034369;28;20029;-77
2022/11/23 08:13:02;;;;;;;9.52;4.10;;;5.50;97.90;;;;;;5032266;28;20108;-78
2022/11/23 08:15:28;;;;;;;10.95;3.47;;;5.60;97.80;;;;;;5025355;28;20025;-78
2022/11/23 08:18:00;;;;;;;9.82;3.25;;;5.60;97.70;;;;;;5033326;28;20043;-76
2022/11/23 08:20:28;;;;;;;7.22;3.33;;;5.60;97.40;;;;;;5027717;28;20076;-77
2022/11/23 08:22:54;;;;;;;6.72;3.08;;;5.60;97.30;;;;;;5034440;28;20514;-77
2022/11/23 08:25:24;;;;;;;12.45;3.67;;;5.50;97.30;;;;;;5023918;28;20485;-77
2022/11/23 08:27:57;;;;;;;10.50;3.03;;;5.50;97.40;;;;;;5035772;28;20025;-76
2022/11/23 08:30:23;;;;;;;11.10;3.30;;;5.40;97.40;;;;;;5040502;28;20483;-77
2022/11/23 08:32:48;;;;;;;11.13;3.13;;;5.50;97.50;;;;;;5035696;28;20037;-77
2022/11/23 08:35:14;;;;;;;8.85;3.47;;;5.50;97.50;;;;;;5036802;28;20465;-76
2022/11/23 08:37:39;;;;;;;11.13;3.45;;;5.50;97.50;;;;;;5035672;28;20164;-77
2022/11/23 08:40:05;;;;;;;7.65;3.05;;;5.50;97.40;;;;;;5035763;28;20108;-77
2022/11/23 08:42:30;;;;;;;9.90;3.92;;;5.50;97.30;;;;;;5037410;28;20172;-77
2022/11/23 08:44:58;;;;;;;7.88;3.58;;;5.50;97.40;;;;;;5031759;28;20117;-77
2022/11/23 08:47:24;;;;;;;8.90;3.42;;;5.60;97.40;;;;;;5038481;28;20032;-77
2022/11/23 08:49:50;;;;;;;6.85;3.42;;;5.60;97.40;;;;;;5037735;28;20029;-77
2022/11/23 08:52:15;;;;;;;11.63;3.58;;;5.60;97.40;;;;;;5048994;28;20488;-77
2022/11/23 08:54:41;;;;;;;7.32;3.42;;;5.80;97.20;;;;;;5027503;28;20077;-77
2022/11/23 08:57:06;;;;;;;8.73;3.70;;;5.80;97.00;;;;;;5037237;28;20071;-77
2022/11/23 08:59:33;;;;;;;7.15;3.17;;;5.80;96.60;;;;;;5031891;28;20082;-76
2022/11/23 09:01:58;;;;;;;7.55;2.83;;;5.90;96.70;;;;;;5033114;28;20438;-78
2022/11/23 09:04:26;;;;;;;8.25;3.72;;;5.90;96.60;;;;;;5037206;28;20052;-78
2022/11/23 09:06:52;;;;;;;10.70;3.78;;;6.00;96.60;;;;;;5031723;28;20029;-77
2022/11/23 09:09:17;;;;;;;11.02;3.67;;;6.10;96.40;;;;;;5036257;28;20406;-78
2022/11/23 09:11:43;;;;;;;10.65;3.22;;;6.30;96.00;;;;;;5034510;28;20083;-78
2022/11/23 09:14:08;;;;;;;6.38;3.03;;;6.50;95.90;;;;;;5033227;28;20129;-78
2022/11/23 09:16:34;;;;;;;9.73;3.17;;;6.60;95.70;;;;;;5036680;28;20037;-78
2022/11/23 09:18:59;;;;;;;5.97;2.97;;;6.70;95.40;;;;;;5032777;28;20029;-77
2022/11/23 09:21:29;;;;;;;8.27;2.70;;;6.70;95.30;;;;;;5031880;28;20167;-79
2022/11/23 09:23:55;;;;;;;8.13;2.58;;;6.70;94.80;;;;;;5035684;28;20076;-79
2022/11/23 09:26:21;;;;;;;12.98;2.63;;;6.80;95.00;;;;;;5034607;28;20470;-78
2022/11/23 09:28:46;;;;;;;6.88;2.83;;;6.80;95.10;;;;;;5028478;28;20109;-78
2022/11/23 09:31:12;;;;;;;5.75;2.47;;;6.90;94.30;;;;;;5035049;28;20068;-78
2022/11/23 09:33:37;;;;;;;7.32;2.58;;;7.00;94.40;;;;;;5028665;28;20441;-78
2022/11/23 09:36:04;;;;;;;7.93;2.67;;;7.00;94.30;;;;;;5032107;28;20048;-78
2022/11/23 09:38:30;;;;;;;8.52;1.90;;;7.10;94.30;;;;;;5037954;28;20021;-78
2022/11/23 09:41:20;;;;;;;8.05;2.40;;;7.10;94.00;;;;;;5028620;28;20033;-77
2022/11/23 09:44:00;;;;;;;6.35;2.13;;;7.10;93.70;;;;;;5030784;28;20061;-77
2022/11/23 09:46:53;;;;;;;7.57;2.22;;;7.10;93.70;;;;;;5028188;28;20458;-78
2022/11/23 09:49:29;;;;;;;7.03;2.15;;;7.10;93.90;;;;;;5021582;28;20113;-78
2022/11/23 09:51:55;;;;;;;7.25;1.83;;;7.20;93.70;;;;;;5020532;28;20029;-78
2022/11/23 09:54:36;;;;;;;5.70;2.28;;;7.30;93.40;;;;;;5034171;28;20104;-75
2022/11/23 09:57:03;;;;;;;8.25;2.35;;;7.40;93.60;;;;;;5022259;28;20028;-77
2022/11/23 09:59:28;;;;;;;7.95;2.38;;;7.40;93.40;;;;;;5026410;28;20097;-77
2022/11/23 10:01:55;;;;;;;5.80;2.10;;;7.40;93.50;;;;;;5026743;28;20163;-77
2022/11/23 10:04:22;;;;;;;4.45;1.83;;;7.40;93.10;;;;;;5013317;28;20052;-75
2022/11/23 10:06:57;;;;;;;6.35;1.95;;;7.40;93.30;;;;;;5025077;28;20035;-75
2022/11/23 10:09:53;;;;;;;6.25;2.00;;;7.30;93.30;;;;;;5023529;28;20040;-74
2022/11/23 10:12:48;;;;;;;5.95;2.08;;;7.30;93.20;;;;;;5035518;28;20052;-74
2022/11/23 10:15:29;;;;;;;7.32;2.08;;;7.30;93.30;;;;;;5025965;28;20096;-75
2022/11/23 10:18:05;;;;;;;6.70;2.28;;;7.40;93.30;;;;;;5029588;28;20421;-75
2022/11/23 10:20:37;;;;;;;6.95;2.30;;;7.40;93.30;;;;;;5027120;28;20029;-75
2022/11/23 10:23:10;;;;;;;8.15;2.35;;;7.40;93.40;;;;;;5029254;28;20090;-75
2022/11/23 10:25:47;;;;;;;6.90;2.20;;;7.50;93.40;;;;;;5026217;28;20055;-76
2022/11/23 10:28:15;;;;;;;7.90;2.60;;;7.50;93.40;;;;;;5028775;28;20029;-74
2022/11/23 10:30:41;;;;;;;5.00;1.85;;;7.50;93.40;;;;;;5025947;28;20079;-75
2022/11/23 10:33:30;;;;;;;4.82;1.80;;;7.50;93.10;;;;;;5021378;28;20025;-75
2022/11/23 10:35:56;;;;;;;7.40;2.13;;;7.50;93.00;;;;;;5027012;28;20095;-75
2022/11/23 10:38:26;;;;;;;6.60;1.80;;;7.50;92.70;;;;;;5021761;28;20292;-74
2022/11/23 10:41:05;;;;;;;5.20;1.92;;;7.50;92.80;;;;;;5038426;28;20026;-75
2022/11/23 10:43:37;;;;;;;7.20;2.05;;;7.60;93.00;;;;;;5020068;28;20029;-74
2022/11/23 10:46:41;;;;;;;8.80;2.40;;;7.60;93.00;;;;;;5021452;28;20033;-74
2022/11/23 10:49:19;;;;;;;7.80;2.10;;;7.60;92.60;;;;;;5028366;28;20092;-74
2022/11/23 10:51:48;;;;;;;5.30;1.92;;;7.60;92.70;;;;;;5037195;28;20104;-74
2022/11/23 10:54:28;;;;;;;8.23;2.00;;;7.50;92.70;;;;;;5027200;28;20174;-74
2022/11/23 10:56:54;;;;;;;8.23;2.22;;;7.50;92.90;;;;;;5022303;28;20203;-75
2022/11/23 10:59:29;;;;;;;8.80;2.05;;;7.40;93.50;;;;;;5026723;28;20052;-74
2022/11/23 11:02:08;;;;;;;7.60;1.90;;;7.50;94.00;;;;;;5027899;28;20160;-75
2022/11/23 11:04:33;;;;;;;9.80;2.00;;;7.60;94.20;;;;;;5020850;28;20357;-74
2022/11/23 11:07:29;;;;;;;6.25;2.20;;;7.70;94.30;;;;;;5027200;28;20045;-74
2022/11/23 11:10:00;;;;;;;7.47;2.15;;;7.70;93.80;;;;;;5033071;28;20028;-75
2022/11/23 11:12:28;;;;;;;5.18;2.10;;;7.70;93.70;;;;;;5015288;28;20072;-74
2022/11/23 11:15:12;;;;;;;7.00;2.40;;;7.60;93.50;;;;;;5017048;28;20380;-74
2022/11/23 11:17:38;;;;;;;7.88;2.03;;;7.70;93.60;;;;;;5029025;28;20071;-71
2022/11/23 11:20:26;;;;;;;5.88;1.85;;;7.70;93.60;;;;;;5027745;28;20364;-72
2022/11/23 11:22:53;;;;;;;8.02;2.15;;;7.80;93.70;;;;;;5024516;28;20041;-71
2022/11/23 11:25:30;;;;;;;6.20;2.00;;;7.90;93.50;;;;;;5027849;28;20438;-74
2022/11/23 11:27:57;;;;;;;6.20;1.83;;;7.80;93.10;;;;;;5019918;28;20070;-72
2022/11/23 11:30:26;;;;;;;9.18;2.00;;;7.80;92.80;;;;;;5019121;28;20414;-72
2022/11/23 11:32:57;;;;;;;6.45;1.88;;;7.90;93.00;;;;;;5016196;28;20114;-72
2022/11/23 11:35:27;;;;;;;5.50;1.75;;;7.90;93.20;;;;;;5027418;28;20127;-72
2022/11/23 11:38:18;;;;;;;4.43;1.63;;;7.80;93.10;;;;;;5017308;28;20037;-72
2022/11/23 11:40:51;;;;;;;7.50;2.08;;;7.80;93.20;;;;;;5029810;28;20029;-73
2022/11/23 11:43:29;;;;;;;6.07;2.03;;;7.80;93.40;;;;;;5020546;28;20074;-72
2022/11/23 11:46:02;;;;;;;9.35;1.80;;;7.80;93.30;;;;;;5019394;28;20364;-75
2022/11/23 11:48:34;;;;;;;7.38;2.05;;;7.90;93.50;;;;;;5020294;28;20109;-76
2022/11/23 11:51:16;;;;;;;5.03;1.50;;;7.80;93.30;;;;;;5033130;28;20026;-73
2022/11/23 11:54:05;;;;;;;6.68;2.28;;;7.90;93.50;;;;;;5036388;28;20063;-74
2022/11/23 11:56:56;;;;;;;7.22;2.40;;;7.90;93.30;;;;;;5029269;28;20061;-74
2022/11/23 11:59:29;;;;;;;5.00;2.25;;;8.10;93.20;;;;;;5029852;28;20049;-72
2022/11/23 12:02:22;;;;;;;6.65;2.20;;;8.10;92.70;;;;;;5032897;28;20033;-73
2022/11/23 12:05:02;;;;;;;9.60;2.45;;;8.40;92.30;;;;;;5028954;28;20369;-73
2022/11/23 12:07:35;;;;;;;10.07;2.58;;;8.70;91.00;;;;;;5030353;28;20033;-72
2022/11/23 12:10:09;;;;;;;11.38;2.25;;;8.90;90.80;;;;;;5034625;28;20036;-73
2022/11/23 12:12:36;;;;;;;4.30;1.60;;;8.80;90.50;;;;;;5035892;28;20029;-73
2022/11/23 12:15:02;;;;;;;7.10;1.85;;;8.80;90.50;;;;;;5028842;28;20192;-72
2022/11/23 12:18:11;;;;;;;4.72;1.95;;;8.80;90.30;;;;;;5032491;28;20040;-72
2022/11/23 12:20:48;;;;;;;6.95;1.85;;;8.70;90.00;;;;;;5023154;28;20469;-73
2022/11/23 12:23:44;;;;;;;7.72;1.75;;;8.60;90.90;;;;;;5031315;28;20045;-74
2022/11/23 12:26:54;;;;;;;4.65;1.70;;;8.60;90.20;;;;;;5033517;28;20021;-73
2022/11/23 12:29:30;;;;;;;4.68;1.92;;;8.60;90.80;;;;;;5030163;28;20477;-72
2022/11/23 12:32:13;;;;;;;4.65;1.40;;;8.70;90.90;;;;;;5032056;28;20468;-73
2022/11/23 12:34:53;;;;;;;9.75;2.40;;;8.60;90.60;;;;;;5024991;28;20109;-73
2022/11/23 12:37:53;;;;;;;3.47;1.40;;;8.60;90.50;;;;;;5019915;28;20091;-73
2022/11/23 12:40:45;;;;;;;7.97;2.00;;;8.70;90.70;;;;;;5031967;28;20026;-73
2022/11/23 12:43:38;;;;;;;5.95;1.60;;;8.80;90.30;;;;;;4993290;28;20038;-73
2022/11/23 12:46:13;;;;;;;9.85;1.83;;;8.90;90.30;;;;;;5021284;28;20033;-73
2022/11/23 12:48:57;;;;;;;5.10;1.58;;;9.00;89.50;;;;;;5025927;28;20077;-73
2022/11/23 12:51:47;;;;;;;5.72;1.73;;;9.00;89.00;;;;;;5022327;28;20361;-73
2022/11/23 12:54:22;;;;;;;3.78;1.65;;;9.30;88.80;;;;;;5032165;28;20358;-73
2022/11/23 12:57:06;;;;;;;5.57;1.50;;;9.60;88.50;;;;;;5041967;28;20129;-73
2022/11/23 12:59:54;;;;;;;5.20;1.83;;;9.70;86.90;;;;;;5033797;28;20075;-73
2022/11/23 13:02:46;;;;;;;4.13;1.48;;;10.10;87.40;;;;;;5026844;28;20037;-74
2022/11/23 13:05:17;;;;;;;4.28;1.33;;;10.40;85.70;;;;;;5027370;28;20022;-75